Time;durP1;ratioP1;P1;durP2;ratioP2;P2;SDS_P1;SDS_P2;PMS_P1;PMS_P2;Temp;Humidity;BMP_temperature;BMP_pressure;BME280_temperature;BME280_humidity;BME280_pressure;Samples;Min_cycle;Max_cycle;Signal;HPM_P1;HPM_P2
2021/07/06 00:01:06;;;;;;;;;;;18.40;99.90;;;17.41;76.05;95397.44;10327121;28;2074;-80
2021/07/06 00:06:09;;;;;;;;;;;18.40;99.90;;;17.43;76.05;95395.22;10323779;28;2064;-80
2021/07/06 00:11:11;;;;;;;;;;;18.40;99.90;;;17.41;76.42;95388.50;10299615;28;2087;-82
2021/07/06 00:16:14;;;;;;;;;;;18.40;99.90;;;17.38;76.52;95389.97;10321607;28;2115;-80
2021/07/06 00:21:17;;;;;;;;;;;18.40;99.90;;;17.29;76.83;95384.53;10332239;28;1912;-80
2021/07/06 00:26:20;;;;;;;;;;;18.30;99.90;;;17.39;76.09;95386.13;10325453;28;2108;-81
2021/07/06 00:31:22;;;;;;;;;;;18.30;99.90;;;17.25;76.54;95380.91;10345268;28;2063;-81
2021/07/06 00:36:25;;;;;;;;;;;18.30;99.90;;;17.28;76.21;95385.66;10327393;28;2123;-78
2021/07/06 00:41:28;;;;;;;;;;;18.30;99.90;;;17.12;76.99;95383.81;10336214;28;2064;-80
2021/07/06 00:46:31;;;;;;;;;;;18.20;99.90;;;17.23;76.75;95383.13;10326892;28;2147;-80
2021/07/06 00:51:34;;;;;;;;;;;18.10;99.90;;;17.09;76.92;95379.03;10340419;28;2124;-81
2021/07/06 00:56:36;;;;;;;;;;;18.10;99.90;;;17.16;76.92;95368.47;10334889;28;2043;-83
2021/07/06 01:01:39;;;;;;;;;;;18.10;99.90;;;17.08;77.01;95374.72;10304955;28;1910;-79
2021/07/06 01:06:42;;;;;;;;;;;18.10;99.90;;;16.98;77.30;95378.56;10340482;28;2092;-80
2021/07/06 01:11:45;;;;;;;;;;;18.10;99.90;;;17.08;77.05;95372.81;10325173;28;2148;-80
2021/07/06 01:16:48;;;;;;;;;;;18.00;99.90;;;17.13;76.80;95364.50;10327230;28;1971;-82
2021/07/06 01:21:50;;;;;;;;;;;18.10;99.90;;;17.04;77.51;95363.69;10315890;28;2216;-82
2021/07/06 01:26:53;;;;;;;;;;;18.00;99.90;;;17.06;78.08;95347.09;10313762;28;2118;-80
2021/07/06 01:31:56;;;;;;;;;;;18.00;99.90;;;17.07;77.33;95338.63;10324550;28;2175;-83
2021/07/06 01:36:59;;;;;;;;;;;18.00;99.90;;;16.92;78.44;95347.28;10364927;28;1640;-82
2021/07/06 01:42:01;;;;;;;;;;;17.90;99.90;;;16.76;79.10;95341.59;10348477;28;2218;-80
2021/07/06 01:47:04;;;;;;;;;;;17.90;99.90;;;16.85;79.15;95336.94;10337644;28;2051;-81
2021/07/06 01:52:07;;;;;;;;;;;17.80;99.90;;;16.75;79.12;95332.66;10337579;28;2163;-83
2021/07/06 01:57:10;;;;;;;;;;;17.80;99.90;;;16.87;78.79;95323.06;10345105;28;1787;-83
2021/07/06 02:02:13;;;;;;;;;;;17.80;99.90;;;16.73;79.32;95318.63;10352417;28;2160;-82
2021/07/06 02:07:16;;;;;;;;;;;17.80;99.90;;;16.72;79.31;95310.78;10337925;28;2161;-83
2021/07/06 02:12:19;;;;;;;;;;;17.70;99.90;;;16.95;78.04;95305.94;10347788;28;2187;-83
2021/07/06 02:17:21;;;;;;;;;;;17.80;99.90;;;16.84;78.65;95296.53;10345720;28;2139;-83
2021/07/06 02:22:24;;;;;;;;;;;17.80;99.90;;;16.92;78.04;95295.69;10353298;28;1895;-80
2021/07/06 02:27:27;;;;;;;;;;;17.80;99.90;;;16.91;77.78;95292.19;10332534;28;1964;-81
2021/07/06 02:32:30;;;;;;;;;;;17.90;99.90;;;16.89;78.19;95288.22;10338838;28;2199;-81
2021/07/06 02:37:33;;;;;;;;;;;17.90;99.90;;;16.97;78.02;95292.81;10333911;28;1830;-79
2021/07/06 02:42:35;;;;;;;;;;;17.90;99.90;;;16.92;77.87;95293.00;10319467;28;1981;-79
2021/07/06 02:47:38;;;;;;;;;;;17.90;99.90;;;16.85;78.70;95298.13;10316883;28;2307;-79
2021/07/06 02:52:41;;;;;;;;;;;17.80;99.90;;;16.60;79.32;95273.41;10324115;28;2076;-80
2021/07/06 02:57:44;;;;;;;;;;;17.70;99.90;;;16.85;78.77;95276.41;10325920;28;2047;-79
2021/07/06 03:02:47;;;;;;;;;;;17.70;99.90;;;16.79;78.37;95280.44;10319421;28;2063;-79
2021/07/06 03:07:50;;;;;;;;;;;17.70;99.90;;;16.61;79.78;95271.53;10320349;28;2139;-79
2021/07/06 03:12:53;;;;;;;;;;;17.70;99.90;;;16.58;79.75;95285.72;10322034;28;2201;-80
2021/07/06 03:17:56;;;;;;;;;;;17.60;99.90;;;16.71;78.83;95277.41;10312921;28;1674;-78
2021/07/06 03:22:59;;;;;;;;;;;17.60;99.90;;;16.73;78.72;95272.47;10325084;28;1966;-82
2021/07/06 03:28:01;;;;;;;;;;;17.70;99.90;;;16.80;78.60;95271.19;10322055;28;2101;-79
2021/07/06 03:33:04;;;;;;;;;;;17.70;99.90;;;16.97;77.33;95262.94;10324195;28;2102;-80
2021/07/06 03:38:07;;;;;;;;;;;17.80;99.90;;;17.04;76.60;95260.53;10314170;28;1989;-79
2021/07/06 03:43:10;;;;;;;;;;;17.80;99.90;;;16.98;77.05;95259.09;10314337;28;2179;-80
2021/07/06 03:48:12;;;;;;;;;;;17.80;99.90;;;17.12;75.75;95265.13;10339593;28;2170;-80
2021/07/06 03:53:15;;;;;;;;;;;18.00;99.90;;;17.38;74.89;95256.03;10318111;28;2152;-80
2021/07/06 03:58:18;;;;;;;;;;;18.00;99.90;;;17.63;72.90;95263.22;10318725;28;1676;-79
2021/07/06 04:03:25;;;;;;;;;;;18.30;99.90;;;17.58;72.75;95249.03;10313965;28;2001;-81
2021/07/06 04:08:31;;;;;;;;;;;18.40;99.90;;;17.85;72.54;95243.09;10346159;28;1612;-81
2021/07/06 04:13:34;;;;;;;;;;;18.50;99.90;;;18.06;70.97;95243.06;10327756;28;2131;-78
2021/07/06 04:18:57;;;;;;;;;;;18.70;99.90;;;18.34;69.98;95246.81;10320295;28;1992;-79
2021/07/06 04:24:20;;;;;;;;;;;19.00;99.90;;;18.54;69.61;95249.81;10342742;28;2175;-81
2021/07/06 04:29:42;;;;;;;;;;;19.20;99.90;;;19.10;66.85;95234.59;10320960;28;1953;-83
2021/07/06 04:34:45;;;;;;;;;;;19.50;99.90;;;19.13;66.59;95250.25;10323729;28;2273;-83
2021/07/06 04:39:48;;;;;;;;;;;19.80;99.90;;;19.45;64.83;95248.50;10323944;28;2100;-83
2021/07/06 04:44:51;;;;;;;;;;;20.10;99.90;;;19.60;64.51;95254.44;10339360;28;1942;-84
2021/07/06 04:49:54;;;;;;;;;;;20.20;99.90;;;19.97;62.83;95249.69;10339261;28;2051;-84
2021/07/06 04:54:57;;;;;;;;;;;20.40;99.90;;;20.07;62.31;95257.38;10346235;28;1738;-83
2021/07/06 04:59:59;;;;;;;;;;;20.70;99.90;;;20.31;61.23;95247.53;10345283;28;1142;-83
2021/07/06 05:05:02;;;;;;;;;;;20.90;99.90;;;20.36;61.12;95237.16;10340412;28;1942;-83
2021/07/06 05:10:05;;;;;;;;;;;21.00;99.90;;;20.44;60.72;95243.59;10351383;28;1015;-79
2021/07/06 05:15:10;;;;;;;;;;;21.20;99.90;;;20.61;60.09;95248.72;10339585;28;1939;-80
2021/07/06 05:20:13;;;;;;;;;;;21.30;99.90;;;20.88;59.58;95236.19;10332859;28;2190;-79
2021/07/06 05:25:17;;;;;;;;;;;21.50;99.90;;;20.96;59.51;95226.22;10304592;28;2315;-81
2021/07/06 05:30:20;;;;;;;;;;;21.60;99.90;;;21.01;59.56;95239.63;10327302;28;1371;-79
2021/07/06 05:35:23;;;;;;;;;;;21.70;99.90;;;21.35;58.56;95237.31;10329920;28;2150;-79
2021/07/06 05:40:30;;;;;;;;;;;21.80;99.90;;;21.54;57.87;95235.41;10323085;28;1383;-78
2021/07/06 05:45:33;;;;;;;;;;;22.10;99.90;;;21.70;57.21;95231.88;10329825;28;1973;-78
2021/07/06 05:50:36;;;;;;;;;;;22.30;99.90;;;21.79;56.88;95229.72;10319201;28;1363;-80
2021/07/06 05:55:38;;;;;;;;;;;22.50;99.90;;;22.15;56.06;95227.75;10340836;28;1323;-84
2021/07/06 06:00:42;;;;;;;;;;;22.70;99.90;;;22.22;56.62;95225.16;10298418;28;1509;-77
2021/07/06 06:05:45;;;;;;;;;;;22.90;99.90;;;22.22;56.41;95203.25;10281599;28;1903;-79
2021/07/06 06:10:48;;;;;;;;;;;23.00;99.90;;;22.64;54.45;95206.75;10279441;28;2111;-77
2021/07/06 06:15:51;;;;;;;;;;;23.10;99.90;;;23.01;54.58;95200.75;10292229;28;2079;-81
2021/07/06 06:20:54;;;;;;;;;;;23.50;99.90;;;23.11;54.69;95200.16;10301625;28;2245;-77
2021/07/06 06:25:56;;;;;;;;;;;23.60;99.90;;;23.49;52.93;95190.13;10289292;28;1988;-78
2021/07/06 06:31:00;;;;;;;;;;;23.90;99.90;;;23.54;52.77;95186.25;10305283;28;2231;-79
2021/07/06 06:36:02;;;;;;;;;;;24.10;99.90;;;23.58;52.43;95190.66;10311246;28;2044;-79
2021/07/06 06:41:05;;;;;;;;;;;24.20;99.90;;;23.94;52.07;95191.16;10320224;28;2139;-79
2021/07/06 06:46:08;;;;;;;;;;;24.40;99.90;;;24.16;52.46;95179.25;10308675;28;2111;-78
2021/07/06 06:51:11;;;;;;;;;;;24.70;99.90;;;24.48;50.04;95176.09;10301312;28;2029;-81
2021/07/06 06:56:14;;;;;;;;;;;24.90;99.90;;;24.74;49.89;95166.91;10306094;28;2048;-80
2021/07/06 07:01:17;;;;;;;;;;;25.20;99.90;;;24.84;50.28;95160.72;10303924;28;2044;-78
2021/07/06 07:06:20;;;;;;;;;;;25.30;99.90;;;25.13;48.71;95156.28;10321055;28;1910;-79
2021/07/06 07:11:23;;;;;;;;;;;25.70;99.90;;;25.47;47.33;95148.63;10309972;28;2170;-79
2021/07/06 07:16:25;;;;;;;;;;;26.00;99.90;;;25.34;48.73;95142.66;10314417;28;2172;-80
2021/07/06 07:21:30;;;;;;;;;;;26.20;99.90;;;25.92;46.81;95152.03;10313423;28;2183;-79
2021/07/06 07:26:33;;;;;;;;;;;26.40;99.90;;;25.44;48.38;95145.84;10324801;28;2001;-80
2021/07/06 07:31:35;;;;;;;;;;;26.30;99.90;;;25.65;49.14;95143.22;10333903;28;2118;-79
2021/07/06 07:36:39;;;;;;;;;;;26.20;99.90;;;25.08;48.53;95151.13;10318594;28;2137;-79
2021/07/06 07:41:42;;;;;;;;;;;26.20;99.90;;;24.89;49.12;95143.09;10309607;28;2067;-79
2021/07/06 07:46:45;;;;;;;;;;;25.90;99.90;;;25.19;48.17;95138.22;10304694;28;2199;-79
2021/07/06 07:51:47;;;;;;;;;;;25.80;99.90;;;25.65;45.66;95143.22;10305722;28;2040;-78
2021/07/06 07:57:11;;;;;;;;;;;26.00;99.90;;;25.79;47.43;95131.50;10305864;28;2076;-79
2021/07/06 08:02:14;;;;;;;;;;;26.40;99.90;;;25.82;46.06;95137.03;10299868;28;2108;-77
2021/07/06 08:07:17;;;;;;;;;;;26.50;99.90;;;25.58;47.29;95130.22;10308585;28;1583;-78
2021/07/06 08:12:20;;;;;;;;;;;26.30;99.90;;;25.59;46.78;95122.75;10311834;28;2138;-78
2021/07/06 08:17:22;;;;;;;;;;;26.40;99.90;;;26.02;46.35;95128.44;10319355;28;2096;-79
2021/07/06 08:22:25;;;;;;;;;;;26.60;99.90;;;26.29;46.21;95120.66;10308372;28;2245;-78
2021/07/06 08:27:28;;;;;;;;;;;26.80;99.90;;;26.24;44.83;95132.06;10312322;28;2052;-78
2021/07/06 08:32:31;;;;;;;;;;;27.00;99.90;;;25.98;45.87;95122.16;10279594;28;2102;-78
2021/07/06 08:37:33;;;;;;;;;;;27.00;99.90;;;26.17;45.13;95112.75;10313953;28;2087;-79
2021/07/06 08:42:37;;;;;;;;;;;27.00;99.90;;;26.22;45.79;95107.66;10294548;28;2052;-80
2021/07/06 08:47:40;;;;;;;;;;;27.00;99.90;;;26.57;44.87;95108.91;10302106;28;2161;-79
2021/07/06 08:52:44;;;;;;;;;;;27.20;99.90;;;27.23;42.40;95105.75;10299534;28;2121;-79
2021/07/06 08:57:47;;;;;;;;;;;27.60;99.90;;;27.12;43.37;95103.03;10305243;28;1912;-78
2021/07/06 09:02:51;;;;;;;;;;;27.80;99.90;;;27.42;42.85;95103.38;10290688;28;1911;-78
2021/07/06 09:07:54;;;;;;;;;;;28.00;99.90;;;27.45;41.51;95101.78;10295049;28;2194;-77
2021/07/06 09:12:58;;;;;;;;;;;28.10;99.90;;;27.05;41.73;95100.25;10304202;28;2064;-78
2021/07/06 09:18:01;;;;;;;;;;;28.00;99.20;;;26.86;40.68;95107.75;10309689;28;2136;-77
2021/07/06 09:23:04;;;;;;;;;;;27.90;96.20;;;26.77;42.53;95104.59;10278683;28;2076;-78
2021/07/06 09:28:07;;;;;;;;;;;27.60;98.00;;;27.15;42.45;95091.19;10307007;28;2215;-79
2021/07/06 09:33:10;;;;;;;;;;;27.80;98.40;;;26.90;42.55;95094.72;10330056;28;2087;-79
2021/07/06 09:38:14;;;;;;;;;;;27.90;98.00;;;26.99;43.06;95096.31;10323236;28;2241;-79
2021/07/06 09:43:17;;;;;;;;;;;27.80;98.30;;;27.55;41.63;95084.41;10312548;28;2115;-78
2021/07/06 09:48:20;;;;;;;;;;;28.10;98.80;;;27.43;41.58;95082.84;10302778;28;2195;-78
2021/07/06 09:53:22;;;;;;;;;;;28.30;97.10;;;27.02;43.33;95090.00;10290854;28;2194;-78
2021/07/06 09:58:25;;;;;;;;;;;28.20;97.70;;;27.43;43.58;95082.84;10316753;28;2041;-78
2021/07/06 10:03:28;;;;;;;;;;;28.20;99.50;;;27.70;42.36;95071.34;10302929;28;2068;-80
2021/07/06 10:08:30;;;;;;;;;;;28.50;98.10;;;27.67;42.67;95070.13;10312559;28;2084;-79
2021/07/06 10:13:33;;;;;;;;;;;28.50;98.30;;;27.42;43.56;95059.22;10292461;28;2208;-81
2021/07/06 10:18:36;;;;;;;;;;;28.40;97.80;;;27.54;42.74;95065.44;10296276;28;2205;-80
2021/07/06 10:23:42;;;;;;;;;;;28.40;97.40;;;27.66;42.24;95062.25;10301696;28;2120;-78
2021/07/06 10:28:45;;;;;;;;;;;28.50;96.70;;;27.35;42.94;95047.38;10301589;28;2086;-78
2021/07/06 10:33:48;;;;;;;;;;;28.40;96.60;;;27.47;43.83;95052.47;10296153;28;2068;-78
2021/07/06 10:38:53;;;;;;;;;;;28.50;97.00;;;27.84;41.18;95046.41;10320990;28;2249;-78
2021/07/06 10:43:56;;;;;;;;;;;28.60;95.10;;;28.42;40.43;95041.34;10303993;28;2119;-79
2021/07/06 10:48:58;;;;;;;;;;;29.30;94.20;;;29.37;39.00;95038.91;10320073;28;2071;-77
2021/07/06 10:54:01;;;;;;;;;;;30.70;92.10;;;29.08;39.42;95024.59;10311919;28;2115;-79
2021/07/06 10:59:05;;;;;;;;;;;31.20;89.60;;;29.59;37.92;95018.13;10331007;28;2144;-78
2021/07/06 11:04:08;;;;;;;;;;;31.50;88.40;;;29.45;37.22;95021.00;10319984;28;2162;-79
2021/07/06 11:09:11;;;;;;;;;;;31.60;86.10;;;30.00;37.70;95025.47;10307537;28;2004;-78
2021/07/06 11:14:13;;;;;;;;;;;31.90;86.40;;;29.89;36.60;95014.53;10320673;28;2032;-78
2021/07/06 11:19:16;;;;;;;;;;;32.40;84.20;;;30.12;36.53;95027.72;10308407;28;2044;-79
2021/07/06 11:24:19;;;;;;;;;;;32.50;83.40;;;29.72;37.79;95021.13;10312356;28;1891;-80
2021/07/06 11:29:23;;;;;;;;;;;32.30;83.20;;;30.13;37.02;95022.94;10311630;28;1966;-80
2021/07/06 11:34:29;;;;;;;;;;;32.20;83.40;;;29.84;37.05;95020.56;10320756;28;2064;-79
2021/07/06 11:39:31;;;;;;;;;;;31.80;82.20;;;28.86;38.56;95024.00;10313470;28;2051;-79
2021/07/06 11:44:34;;;;;;;;;;;31.00;82.90;;;29.15;37.94;95019.00;10294346;28;1910;-80
2021/07/06 11:49:37;;;;;;;;;;;30.40;83.40;;;28.50;40.41;95010.50;10302720;28;1968;-80
2021/07/06 11:54:40;;;;;;;;;;;30.00;85.80;;;28.86;39.39;95007.38;10301944;28;2080;-79
2021/07/06 11:59:43;;;;;;;;;;;30.10;85.20;;;29.24;38.24;95013.75;10310173;28;1968;-78
2021/07/06 12:04:46;;;;;;;;;;;30.10;84.40;;;29.19;38.03;95005.09;10291651;28;2055;-78
2021/07/06 12:09:49;;;;;;;;;;;30.20;83.90;;;29.45;37.12;95001.63;10315879;28;2055;-79
2021/07/06 12:14:51;;;;;;;;;;;30.30;83.20;;;29.38;37.86;95007.25;10306705;28;2379;-78
2021/07/06 12:19:54;;;;;;;;;;;30.60;83.20;;;30.02;36.89;95003.66;10323670;28;2103;-79
2021/07/06 12:24:57;;;;;;;;;;;30.80;82.60;;;30.06;35.15;95007.19;10315310;28;1886;-79
2021/07/06 12:30:02;;;;;;;;;;;31.00;80.40;;;30.20;35.71;95008.97;10333076;28;1972;-78
2021/07/06 12:35:06;;;;;;;;;;;31.10;80.70;;;30.29;35.51;95009.25;10336691;28;2185;-78
2021/07/06 12:40:09;;;;;;;;;;;31.20;80.00;;;30.35;35.42;95009.56;10331757;28;1874;-80
2021/07/06 12:45:12;;;;;;;;;;;31.30;79.30;;;30.35;34.51;95015.91;10314978;28;2183;-79
2021/07/06 12:50:14;;;;;;;;;;;31.30;78.40;;;30.45;35.89;95005.81;10316016;28;2063;-79
2021/07/06 12:55:17;;;;;;;;;;;31.60;78.90;;;30.85;33.54;95003.19;10327239;28;2130;-80
2021/07/06 13:00:20;;;;;;;;;;;31.70;77.00;;;30.73;33.99;94998.25;10328148;28;2062;-81
2021/07/06 13:05:25;;;;;;;;;;;31.90;75.90;;;30.75;33.65;94996.63;10310492;28;2145;-79
2021/07/06 13:10:27;;;;;;;;;;;31.80;75.80;;;30.44;33.09;94993.16;10313977;28;2106;-79
2021/07/06 13:15:30;;;;;;;;;;;31.70;74.60;;;30.37;33.83;94985.75;10317142;28;2112;-80
2021/07/06 13:20:33;;;;;;;;;;;31.50;74.60;;;30.50;32.55;94991.47;10323704;28;2175;-79
2021/07/06 13:25:36;;;;;;;;;;;31.40;73.50;;;30.55;32.72;94990.22;10292803;28;1998;-79
2021/07/06 13:30:39;;;;;;;;;;;31.50;73.70;;;30.69;31.01;94992.78;10339791;28;2138;-79
2021/07/06 13:35:42;;;;;;;;;;;31.60;71.80;;;30.90;30.82;94992.38;10295092;28;2021;-79
2021/07/06 13:40:45;;;;;;;;;;;31.70;70.90;;;31.25;28.98;95006.06;10315663;28;2193;-78
2021/07/06 13:45:48;;;;;;;;;;;32.10;69.00;;;31.44;29.08;95008.84;10326542;28;2155;-79
2021/07/06 13:50:51;;;;;;;;;;;32.30;68.60;;;31.38;29.68;95012.56;10317526;28;2096;-79
2021/07/06 13:55:54;;;;;;;;;;;32.30;69.20;;;32.13;26.18;95013.75;10309600;28;2308;-79
2021/07/06 14:00:56;;;;;;;;;;;32.70;64.40;;;32.02;26.08;95016.81;10320174;28;2234;-80
2021/07/06 14:05:59;;;;;;;;;;;32.90;63.10;;;32.13;25.91;95020.13;10320100;28;2125;-79
2021/07/06 14:11:02;;;;;;;;;;;32.90;62.20;;;31.91;26.99;95019.03;10296673;28;2133;-78
2021/07/06 14:16:05;;;;;;;;;;;32.80;63.10;;;32.19;27.32;95000.91;10304973;28;2008;-79
2021/07/06 14:21:08;;;;;;;;;;;32.90;64.10;;;31.55;26.82;95008.63;10309428;28;2152;-79
2021/07/06 14:26:11;;;;;;;;;;;32.60;62.70;;;32.25;25.84;95010.31;10305352;28;2052;-78
2021/07/06 14:31:14;;;;;;;;;;;32.60;62.20;;;32.32;27.70;95014.91;10284659;28;2052;-79
2021/07/06 14:36:17;;;;;;;;;;;33.10;63.80;;;32.10;31.29;95032.09;10317936;28;2076;-78
2021/07/06 14:41:20;;;;;;;;;;;32.90;68.10;;;31.62;31.69;95024.34;10307680;28;2079;-79
2021/07/06 14:46:23;;;;;;;;;;;32.60;68.10;;;31.38;34.37;95045.88;10295441;28;2080;-79
2021/07/06 14:51:26;;;;;;;;;;;32.40;71.60;;;31.10;35.15;95058.25;10293238;28;2147;-80
2021/07/06 14:56:29;;;;;;;;;;;32.00;73.00;;;30.79;36.55;95065.91;10295196;28;2151;-80
2021/07/06 15:01:31;;;;;;;;;;;31.60;74.70;;;30.19;39.16;95064.84;10306848;28;2087;-79
2021/07/06 15:06:34;;;;;;;;;;;31.20;77.80;;;30.20;38.12;95066.41;10300922;28;2196;-78
2021/07/06 15:11:40;;;;;;;;;;;30.90;76.90;;;31.17;36.78;95066.44;10293737;28;2088;-78
2021/07/06 15:16:42;;;;;;;;;;;31.40;76.90;;;30.14;42.98;95088.25;10303958;28;2205;-78
2021/07/06 15:21:45;;;;;;;;;;;31.30;81.90;;;29.74;45.70;95087.16;10302907;28;2196;-77
2021/07/06 15:26:48;;;;;;;;;;;30.80;85.30;;;28.55;48.83;95100.50;10293166;28;1907;-74
2021/07/06 15:31:52;;;;;;;;;;;30.00;88.10;;;27.71;50.51;95108.81;10283729;28;2174;-78
2021/07/06 15:36:58;;;;;;;;;;;28.20;91.70;;;26.87;51.41;95153.44;10306148;28;2025;-79
2021/07/06 15:42:00;;;;;;;;;;;28.10;91.60;;;26.25;53.92;95153.69;10294725;28;2176;-81
2021/07/06 15:47:03;;;;;;;;;;;27.50;94.20;;;26.80;53.68;95164.47;10304042;28;2103;-77
2021/07/06 15:52:06;;;;;;;;;;;27.40;96.10;;;26.28;53.93;95141.13;10303377;28;2111;-80
2021/07/06 15:57:08;;;;;;;;;;;27.20;96.20;;;26.23;54.58;95136.78;10286744;28;2176;-78
2021/07/06 16:02:11;;;;;;;;;;;27.00;97.40;;;25.83;55.41;95144.13;10303265;28;2096;-80
2021/07/06 16:07:14;;;;;;;;;;;26.70;98.00;;;25.45;56.16;95161.16;10301477;28;2072;-81
2021/07/06 16:12:17;;;;;;;;;;;26.40;99.00;;;25.39;55.48;95157.22;10299317;28;2150;-81
2021/07/06 16:17:20;;;;;;;;;;;26.10;99.20;;;25.38;55.34;95175.69;10300943;28;2129;-80
2021/07/06 16:22:23;;;;;;;;;;;26.10;99.10;;;25.41;53.53;95191.44;10302322;28;2103;-78
2021/07/06 16:27:26;;;;;;;;;;;26.10;97.90;;;25.27;52.38;95181.13;10298531;28;2136;-81
2021/07/06 16:32:28;;;;;;;;;;;26.00;96.50;;;25.22;51.87;95180.69;10311063;28;2195;-84
2021/07/06 16:37:31;;;;;;;;;;;26.00;95.90;;;24.81;52.78;95208.19;10312284;28;2009;-81
2021/07/06 16:42:34;;;;;;;;;;;25.70;95.90;;;24.40;53.93;95196.41;10325183;28;2068;-82
2021/07/06 16:47:37;;;;;;;;;;;25.40;96.70;;;24.02;55.15;95178.28;10331783;28;1985;-82
2021/07/06 18:07:43;;;;;;;;;;;19.70;99.90;;;18.61;97.25;95377.97;10360542;28;2235;-81
2021/07/06 18:12:46;;;;;;;;;;;19.50;99.90;;;18.61;95.71;95388.88;10477041;28;2258;-79
2021/07/06 18:17:50;;;;;;;;;;;19.40;99.90;;;18.51;97.36;95383.81;10494090;28;2218;-80
2021/07/06 18:22:53;;;;;;;;;;;19.40;99.90;;;18.35;94.48;95384.44;10497368;28;2058;-80
2021/07/06 18:27:56;;;;;;;;;;;19.40;99.90;;;18.12;92.08;95372.28;10487354;28;2134;-80
2021/07/06 18:32:58;;;;;;;;;;;19.20;99.90;;;18.01;91.87;95393.66;10497785;28;2095;-79
2021/07/06 18:38:02;;;;;;;;;;;19.00;99.90;;;17.87;92.04;95395.00;10481521;28;2122;-82
2021/07/06 18:43:05;;;;;;;;;;;18.80;99.90;;;17.85;91.98;95391.84;10479805;28;2239;-79
2021/07/06 18:48:08;;;;;;;;;;;18.80;99.90;;;17.78;91.17;95371.41;10485386;28;1926;-80
2021/07/06 18:53:23;;;;;;;;;;;18.70;99.90;;;17.71;90.35;95373.84;10482633;28;1731;-80
2021/07/06 18:58:26;;;;;;;;;;;18.50;99.90;;;17.57;90.60;95367.81;10486596;28;1960;-78
2021/07/06 19:03:29;;;;;;;;;;;18.40;99.90;;;17.61;89.20;95379.59;10502309;28;1585;-80
2021/07/06 19:08:32;;;;;;;;;;;18.50;99.90;;;17.63;90.17;95385.53;10497802;28;2127;-83
2021/07/06 19:13:36;;;;;;;;;;;18.50;99.90;;;17.68;90.32;95396.19;10492752;28;1748;-78
2021/07/06 19:18:44;;;;;;;;;;;18.50;99.90;;;17.76;91.62;95392.69;10488422;28;2043;-80
2021/07/06 19:34:27;;;;;;;;;;;18.70;99.90;;;17.68;90.66;95401.63;10498910;28;1668;-80
2021/07/06 19:39:30;;;;;;;;;;;18.70;99.90;;;17.81;91.60;95408.81;10507381;28;1361;-82
2021/07/06 19:44:33;;;;;;;;;;;18.70;99.90;;;18.05;91.96;95415.53;10486368;28;1537;-81
2021/07/06 19:49:36;;;;;;;;;;;18.80;99.90;;;18.06;92.20;95428.81;10500643;28;1980;-77
2021/07/06 19:54:39;;;;;;;;;;;18.90;99.90;;;18.34;91.42;95453.59;10490053;28;2165;-81
2021/07/06 19:59:42;;;;;;;;;;;19.00;99.90;;;18.60;90.17;95468.94;10501570;28;1295;-79
2021/07/06 20:04:48;;;;;;;;;;;19.20;99.90;;;18.77;88.27;95479.75;10495540;28;1914;-79
2021/07/06 20:09:51;;;;;;;;;;;19.30;99.90;;;18.53;89.13;95485.81;10499727;28;1487;-81
2021/07/06 20:14:53;;;;;;;;;;;19.40;99.90;;;18.42;89.77;95506.38;10493046;28;1766;-79
2021/07/06 20:19:56;;;;;;;;;;;19.30;99.90;;;18.07;90.34;95479.38;10478650;28;1637;-81
2021/07/06 20:24:59;;;;;;;;;;;19.10;99.90;;;18.12;90.81;95508.28;10489496;28;1910;-79
2021/07/06 20:30:01;;;;;;;;;;;19.00;99.90;;;18.20;90.77;95544.75;10487989;28;1615;-79
2021/07/06 20:35:04;;;;;;;;;;;18.90;99.90;;;18.41;90.77;95613.63;10491121;28;1480;-80
2021/07/06 20:40:07;;;;;;;;;;;19.00;99.90;;;17.83;99.07;95602.31;10492717;28;1389;-80
2021/07/06 20:45:09;;;;;;;;;;;18.80;99.90;;;17.24;100.00;95631.94;10501264;28;2089;-80
2021/07/06 20:50:12;;;;;;;;;;;18.30;99.90;;;17.01;100.00;95616.88;10497071;28;1475;-80
2021/07/06 20:55:15;;;;;;;;;;;18.00;99.90;;;16.42;100.00;95589.28;10515043;28;1458;-81
2021/07/06 21:00:18;;;;;;;;;;;17.50;99.90;;;16.65;100.00;95611.69;10507105;28;1500;-79
2021/07/06 21:05:20;;;;;;;;;;;17.40;99.90;;;16.43;100.00;95615.31;10519062;28;1957;-81
2021/07/06 21:10:23;;;;;;;;;;;17.40;99.90;;;16.56;100.00;95638.00;10518984;28;1533;-80
2021/07/06 21:15:26;;;;;;;;;;;17.30;99.90;;;16.47;100.00;95633.31;10504996;28;1627;-78
2021/07/06 21:20:29;;;;;;;;;;;17.30;99.90;;;16.53;100.00;95634.00;10486831;28;2406;-79
2021/07/06 21:25:31;;;;;;;;;;;17.30;99.90;;;16.55;100.00;95629.06;10475658;28;1906;-80
2021/07/06 21:30:36;;;;;;;;;;;17.40;99.90;;;16.45;100.00;95608.44;10463839;28;1900;-80
2021/07/06 21:35:39;;;;;;;;;;;17.30;99.90;;;16.38;100.00;95612.72;10508797;28;1670;-81
2021/07/06 21:40:43;;;;;;;;;;;17.30;99.90;;;16.45;100.00;95626.63;10486873;28;1340;-78
2021/07/06 21:45:46;;;;;;;;;;;17.20;99.90;;;16.46;100.00;95628.22;10489555;28;1969;-80
2021/07/06 21:50:49;;;;;;;;;;;17.30;99.90;;;16.48;100.00;95628.72;10490032;28;2470;-79
2021/07/06 21:55:52;;;;;;;;;;;17.30;99.90;;;16.63;100.00;95635.63;10475372;28;2481;-79
2021/07/06 22:00:55;;;;;;;;;;;17.30;99.90;;;16.66;100.00;95645.84;10477235;28;2832;-81
2021/07/06 22:05:57;;;;;;;;;;;17.40;99.90;;;16.78;100.00;95634.41;10450874;28;2848;-79
2021/07/06 22:11:00;;;;;;;;;;;17.50;99.90;;;16.71;100.00;95621.31;10475632;28;2509;-80
2021/07/06 22:16:03;;;;;;;;;;;17.50;99.90;;;16.80;100.00;95615.91;10475280;28;2775;-80
2021/07/06 22:21:06;;;;;;;;;;;17.50;99.90;;;16.98;100.00;95626.44;10480130;28;2601;-81
2021/07/06 22:26:09;;;;;;;;;;;17.60;99.90;;;16.92;100.00;95624.22;10475313;28;2519;-79
2021/07/06 22:31:12;;;;;;;;;;;17.70;99.90;;;16.92;100.00;95624.22;10473228;28;2583;-79
2021/07/06 22:36:14;;;;;;;;;;;17.70;99.90;;;17.00;100.00;95612.59;10457648;28;2537;-79
2021/07/06 22:41:17;;;;;;;;;;;17.70;99.90;;;17.03;100.00;95598.34;10470051;28;3020;-79
2021/07/06 22:46:20;;;;;;;;;;;17.80;99.90;;;17.14;100.00;95620.56;10471163;28;2560;-79
2021/07/06 22:51:23;;;;;;;;;;;17.80;99.90;;;17.20;100.00;95625.53;10456737;28;2567;-81
2021/07/06 22:56:25;;;;;;;;;;;17.90;99.90;;;17.29;100.00;95610.00;10506999;28;2781;-81
2021/07/06 23:01:28;;;;;;;;;;;18.00;99.90;;;17.33;100.00;95628.41;10474917;28;2566;-81
2021/07/06 23:06:31;;;;;;;;;;;18.10;99.90;;;17.38;100.00;95625.53;10457463;28;2831;-81
2021/07/06 23:11:34;;;;;;;;;;;18.10;99.90;;;17.53;100.00;95635.91;10472784;28;2611;-80
2021/07/06 23:16:37;;;;;;;;;;;18.20;99.90;;;17.63;100.00;95642.94;10483097;28;2594;-79
2021/07/06 23:21:39;;;;;;;;;;;18.30;99.90;;;17.76;100.00;95642.78;10496703;28;2600;-81
2021/07/06 23:26:42;;;;;;;;;;;18.40;99.90;;;17.73;100.00;95643.44;10482164;28;2707;-80
2021/07/06 23:31:45;;;;;;;;;;;18.50;99.90;;;17.72;100.00;95646.47;10472953;28;2510;-80
2021/07/06 23:36:48;;;;;;;;;;;18.40;99.90;;;17.65;100.00;95638.78;10472873;28;2545;-80
2021/07/06 23:41:51;;;;;;;;;;;18.50;99.90;;;17.75;100.00;95641.19;10474829;28;2634;-80
2021/07/06 23:46:54;;;;;;;;;;;18.50;99.90;;;17.71;100.00;95632.09;10478555;28;2549;-78
2021/07/06 23:51:57;;;;;;;;;;;18.50;99.90;;;17.66;100.00;95625.97;10478812;28;2537;-78
2021/07/06 23:57:00;;;;;;;;;;;18.50;99.90;;;17.51;100.00;95613.69;10481319;28;2498;-80
